Time;durP1;ratioP1;P1;durP2;ratioP2;P2;SDS_P1;SDS_P2;PMS_P1;PMS_P2;Temp;Humidity;BMP_temperature;BMP_pressure;BME280_temperature;BME280_humidity;BME280_pressure;Samples;Min_cycle;Max_cycle;Signal;HPM_P1;HPM_P2
2023/05/04 00:01:34;;;;;;;9.63;6.25;;;;;;;7.89;69.04;98918.50;5030841;28;20037;-75
2023/05/04 00:04:00;;;;;;;10.60;7.10;;;;;;;7.58;69.59;98915.66;5047880;28;20106;-74
2023/05/04 00:06:26;;;;;;;7.50;6.03;;;;;;;7.57;69.00;98911.34;5014640;28;20392;-74
2023/05/04 00:08:51;;;;;;;11.00;7.28;;;;;;;7.65;68.58;98916.50;5030618;28;20033;-75
2023/05/04 00:11:16;;;;;;;9.55;6.63;;;;;;;7.59;68.41;98903.91;5030742;28;20052;-76
2023/05/04 00:13:42;;;;;;;9.57;7.78;;;;;;;7.64;69.97;98896.06;4997734;28;20527;-77
2023/05/04 00:16:07;;;;;;;8.90;7.30;;;;;;;7.37;70.15;98910.53;5030501;28;20045;-76
2023/05/04 00:18:32;;;;;;;9.27;7.90;;;;;;;7.41;70.87;98901.88;5013676;28;20018;-74
2023/05/04 00:20:58;;;;;;;11.88;8.02;;;;;;;7.41;69.57;98901.03;5030200;28;20038;-74
2023/05/04 00:23:23;;;;;;;9.50;7.20;;;;;;;7.52;69.37;98892.38;5013446;28;20040;-74
2023/05/04 00:25:48;;;;;;;8.63;7.82;;;;;;;7.48;69.06;98896.50;5046810;28;20152;-74
2023/05/04 00:28:14;;;;;;;8.10;7.30;;;;;;;7.68;68.07;98897.28;5046783;28;20395;-74
2023/05/04 00:30:39;;;;;;;10.10;7.40;;;;;;;7.29;70.25;98908.88;5013683;28;20041;-74
2023/05/04 00:33:05;;;;;;;9.60;7.45;;;;;;;7.46;68.72;98893.19;5010085;28;20030;-74
2023/05/04 00:35:30;;;;;;;9.00;6.95;;;;;;;7.77;68.45;98893.34;5026029;28;20077;-74
2023/05/04 00:37:56;;;;;;;9.38;7.57;;;;;;;7.48;69.15;98893.81;5013845;28;20022;-75
2023/05/04 00:40:21;;;;;;;9.23;7.07;;;;;;;7.44;69.39;98889.91;5029090;28;20096;-75
2023/05/04 00:42:48;;;;;;;9.25;7.00;;;;;;;7.43;69.68;98888.25;5032245;28;22044;-76
2023/05/04 00:45:14;;;;;;;9.40;7.65;;;;;;;7.54;69.11;98891.13;5034965;28;20041;-76
2023/05/04 00:47:41;;;;;;;8.50;6.90;;;;;;;7.83;68.23;98887.16;5000959;28;20025;-76
2023/05/04 00:50:07;;;;;;;9.18;6.60;;;;;;;7.87;67.48;98872.28;5016540;28;20484;-75
2023/05/04 00:52:33;;;;;;;8.20;6.65;;;;;;;8.04;66.67;98881.53;5030392;28;20057;-75
2023/05/04 00:55:00;;;;;;;7.65;6.22;;;;;;;8.30;65.75;98870.75;5029495;28;20559;-76
2023/05/04 00:57:25;;;;;;;8.20;6.82;;;;;;;8.42;65.52;98875.44;5030199;28;20028;-76
2023/05/04 00:59:52;;;;;;;8.05;5.82;;;;;;;8.52;64.04;98878.50;5027794;28;20142;-75
2023/05/04 01:02:17;;;;;;;10.70;6.13;;;;;;;8.59;64.10;98871.22;5033682;28;20028;-76
2023/05/04 01:04:42;;;;;;;9.30;6.53;;;;;;;8.77;63.22;98860.59;5032853;28;20037;-76
2023/05/04 01:07:30;;;;;;;9.82;6.07;;;;;;;8.86;62.50;98870.03;5017845;28;20028;-77
2023/05/04 01:10:03;;;;;;;7.70;5.85;;;;;;;9.04;61.55;98867.41;5014356;28;20041;-77
2023/05/04 01:12:36;;;;;;;8.40;5.72;;;;;;;9.01;62.29;98870.53;5011213;28;20033;-76
2023/05/04 01:15:02;;;;;;;9.00;5.38;;;;;;;8.98;61.27;98862.91;5008957;28;20037;-77
2023/05/04 01:17:27;;;;;;;9.10;5.90;;;;;;;9.13;61.48;98855.34;5027568;28;20071;-76
2023/05/04 01:19:53;;;;;;;10.25;6.13;;;;;;;9.20;61.16;98861.50;5016575;28;20101;-76
2023/05/04 01:22:19;;;;;;;9.13;5.40;;;;;;;9.29;60.39;98854.78;5016601;28;20021;-76
2023/05/04 01:24:45;;;;;;;6.88;5.15;;;;;;;9.38;60.34;98856.16;5029607;28;20044;-76
2023/05/04 01:27:18;;;;;;;6.28;5.68;;;;;;;9.38;59.24;98852.66;5010673;28;20045;-75
2023/05/04 01:30:04;;;;;;;9.60;5.50;;;;;;;9.30;59.90;98856.44;5013249;28;20153;-74
2023/05/04 01:32:31;;;;;;;8.52;5.93;;;;;;;8.83;61.88;98852.47;5031780;28;20041;-73
2023/05/04 01:34:57;;;;;;;6.45;5.43;;;;;;;9.10;60.78;98855.81;5021282;28;20431;-74
2023/05/04 01:37:23;;;;;;;6.82;5.57;;;;;;;9.08;62.18;98857.06;5034109;28;20033;-74
2023/05/04 01:39:49;;;;;;;9.00;6.20;;;;;;;8.93;62.98;98860.06;5006016;28;20030;-74
2023/05/04 01:42:15;;;;;;;8.38;5.85;;;;;;;8.83;60.91;98859.69;5031149;28;20040;-73
2023/05/04 01:44:42;;;;;;;8.65;6.20;;;;;;;8.25;65.31;98851.75;5032244;28;20025;-73
2023/05/04 01:47:07;;;;;;;10.07;5.95;;;;;;;8.33;64.57;98859.56;5016003;28;20036;-73
2023/05/04 01:49:33;;;;;;;6.78;6.15;;;;;;;7.83;65.99;98855.00;5032643;28;20488;-73
2023/05/04 01:51:58;;;;;;;9.30;6.15;;;;;;;8.19;65.05;98868.69;5033878;28;20642;-75
2023/05/04 01:54:23;;;;;;;7.82;5.90;;;;;;;8.07;64.95;98856.16;5031375;28;20072;-76
2023/05/04 01:56:49;;;;;;;6.70;5.97;;;;;;;8.18;65.50;98867.03;5012556;28;20052;-76
2023/05/04 01:59:14;;;;;;;9.30;5.80;;;;;;;8.22;65.76;98873.63;5007377;28;20054;-76
2023/05/04 02:01:40;;;;;;;8.30;6.47;;;;;;;7.48;67.59;98865.16;5033346;28;20060;-75
2023/05/04 02:04:06;;;;;;;7.70;6.05;;;;;;;8.00;66.63;98863.41;5032087;28;20475;-73
2023/05/04 02:06:31;;;;;;;7.20;6.35;;;;;;;7.55;67.55;98870.50;5033173;28;20462;-73
2023/05/04 02:08:57;;;;;;;7.75;6.30;;;;;;;7.60;68.02;98862.69;5033358;28;20443;-73
2023/05/04 02:11:22;;;;;;;7.40;6.38;;;;;;;7.61;68.46;98864.31;5015604;28;20029;-73
2023/05/04 02:13:47;;;;;;;9.43;6.68;;;;;;;7.71;67.71;98850.47;5015188;28;20021;-73
2023/05/04 02:16:13;;;;;;;8.93;6.63;;;;;;;7.62;67.41;98856.06;5028732;28;20511;-72
2023/05/04 02:18:38;;;;;;;7.50;5.35;;;;;;;8.13;63.16;98848.06;5018835;28;20046;-73
2023/05/04 02:21:03;;;;;;;6.32;5.72;;;;;;;8.28;64.40;98848.66;5028652;28;20458;-72
2023/05/04 02:23:29;;;;;;;8.30;5.50;;;;;;;8.30;63.53;98848.44;5028473;28;20049;-73
2023/05/04 02:25:57;;;;;;;7.68;5.72;;;;;;;7.97;65.45;98853.91;5016047;28;20059;-73
2023/05/04 02:28:22;;;;;;;10.73;5.93;;;;;;;8.10;65.20;98842.28;5048695;28;20025;-74
2023/05/04 02:30:48;;;;;;;7.60;6.43;;;;;;;7.83;66.53;98857.69;5032233;28;20120;-74
2023/05/04 02:33:13;;;;;;;8.85;5.90;;;;;;;7.70;66.53;98857.72;5012063;28;20036;-74
2023/05/04 02:35:40;;;;;;;8.38;5.97;;;;;;;7.41;67.63;98852.81;5028223;28;20038;-74
2023/05/04 02:38:05;;;;;;;9.38;5.78;;;;;;;7.76;67.14;98859.53;5031959;28;20082;-74
2023/05/04 02:40:31;;;;;;;9.27;6.18;;;;;;;7.21;68.24;98862.72;5031669;28;20402;-74
2023/05/04 02:42:57;;;;;;;9.68;6.70;;;;;;;7.35;68.49;98853.66;5012107;28;20028;-74
2023/05/04 02:45:22;;;;;;;9.50;6.88;;;;;;;7.47;67.89;98862.69;5027919;28;20033;-74
2023/05/04 02:47:47;;;;;;;8.52;6.07;;;;;;;7.47;67.32;98862.69;5033081;28;20104;-74
2023/05/04 02:50:13;;;;;;;10.35;6.22;;;;;;;7.36;67.94;98856.09;5031448;28;20091;-74
2023/05/04 02:52:38;;;;;;;8.55;6.45;;;;;;;7.36;67.43;98863.31;5031433;28;20054;-74
2023/05/04 02:55:04;;;;;;;10.55;6.85;;;;;;;7.14;68.08;98857.34;5031637;28;20048;-74
2023/05/04 02:57:30;;;;;;;9.32;6.38;;;;;;;7.22;67.57;98861.66;5031685;28;20022;-75
2023/05/04 02:59:55;;;;;;;7.28;6.53;;;;;;;7.15;67.47;98858.16;5028398;28;20037;-75
2023/05/04 03:02:20;;;;;;;7.10;6.10;;;;;;;7.26;67.67;98860.25;5020925;28;20021;-74
2023/05/04 03:04:46;;;;;;;9.48;6.47;;;;;;;7.05;68.25;98858.59;5014114;28;20053;-74
2023/05/04 03:07:11;;;;;;;9.00;6.25;;;;;;;7.35;67.41;98856.31;5031307;28;20057;-73
2023/05/04 03:09:37;;;;;;;8.73;7.00;;;;;;;7.27;68.00;98853.84;5031505;28;20037;-75
2023/05/04 03:12:03;;;;;;;11.07;7.15;;;;;;;7.17;68.24;98856.09;5048194;28;20053;-76
2023/05/04 03:14:29;;;;;;;7.57;6.80;;;;;;;7.19;67.70;98856.75;4998352;28;20122;-76
2023/05/04 03:16:55;;;;;;;8.32;5.95;;;;;;;7.28;67.86;98852.81;5028157;28;20025;-77
2023/05/04 03:19:20;;;;;;;11.32;7.18;;;;;;;7.25;67.71;98853.22;5031353;28;20035;-75
2023/05/04 03:21:46;;;;;;;9.32;7.20;;;;;;;7.02;69.09;98850.16;5031226;28;20025;-75
2023/05/04 03:24:12;;;;;;;8.98;7.22;;;;;;;6.75;69.54;98847.44;5030926;28;20443;-75
2023/05/04 03:26:37;;;;;;;9.02;6.80;;;;;;;6.90;69.34;98837.38;4998330;28;20107;-76
2023/05/04 03:29:03;;;;;;;9.40;7.90;;;;;;;6.94;70.12;98841.28;5031160;28;20033;-76
2023/05/04 03:31:28;;;;;;;7.85;6.90;;;;;;;6.70;70.01;98833.00;5031133;28;20021;-75
2023/05/04 03:33:54;;;;;;;8.93;7.10;;;;;;;6.83;69.16;98839.22;5012834;28;20037;-76
2023/05/04 03:36:20;;;;;;;8.38;6.05;;;;;;;7.19;67.50;98843.34;5027758;28;20085;-75
2023/05/04 03:38:46;;;;;;;7.63;6.05;;;;;;;7.52;65.19;98836.09;5026366;28;20033;-75
2023/05/04 03:41:11;;;;;;;7.00;6.18;;;;;;;7.18;67.50;98844.38;5014537;28;20419;-75
2023/05/04 03:43:37;;;;;;;7.28;6.32;;;;;;;6.93;68.50;98838.81;5030451;28;20181;-75
2023/05/04 03:46:03;;;;;;;7.25;5.88;;;;;;;7.14;67.99;98845.81;5030665;28;20479;-76
2023/05/04 03:48:28;;;;;;;7.57;6.05;;;;;;;6.97;67.67;98846.25;5032026;28;20049;-75
2023/05/04 03:50:54;;;;;;;6.85;6.20;;;;;;;7.39;66.56;98846.84;5011121;28;20108;-74
2023/05/04 03:53:19;;;;;;;7.68;5.53;;;;;;;7.25;67.10;98847.88;5025791;28;20487;-75
2023/05/04 03:55:45;;;;;;;9.98;6.13;;;;;;;7.30;67.07;98835.53;5027837;28;20595;-75
2023/05/04 03:58:10;;;;;;;7.68;6.28;;;;;;;7.17;66.64;98834.69;5009840;28;20029;-75
2023/05/04 04:00:36;;;;;;;9.70;6.60;;;;;;;7.29;66.75;98830.34;5027494;28;20030;-75
2023/05/04 04:03:08;;;;;;;7.00;5.50;;;;;;;7.38;65.46;98842.50;5011469;28;20032;-78
2023/05/04 04:05:35;;;;;;;7.32;5.93;;;;;;;7.20;66.70;98840.47;5031999;28;20033;-75
2023/05/04 04:08:01;;;;;;;6.35;5.70;;;;;;;7.16;67.13;98833.06;5029987;28;20512;-75
2023/05/04 04:10:27;;;;;;;6.95;6.00;;;;;;;6.94;68.08;98837.78;5014121;28;20033;-75
2023/05/04 04:12:52;;;;;;;9.57;7.05;;;;;;;6.82;68.68;98848.28;5030053;28;20022;-75
2023/05/04 04:15:17;;;;;;;11.68;9.07;;;;;;;6.73;70.25;98833.44;5031559;28;20041;-74
2023/05/04 04:17:43;;;;;;;7.68;6.90;;;;;;;6.85;69.53;98847.88;5015491;28;20021;-76
2023/05/04 04:20:09;;;;;;;8.73;7.90;;;;;;;6.86;68.84;98833.44;5034447;28;20042;-75
2023/05/04 04:22:34;;;;;;;7.82;4.95;;;;;;;7.55;64.37;98847.22;5050694;28;20509;-75
2023/05/04 04:25:00;;;;;;;10.02;6.70;;;;;;;7.72;66.24;98850.28;5034186;28;20041;-75
2023/05/04 04:27:25;;;;;;;7.53;5.22;;;;;;;7.51;64.93;98832.56;5034163;28;20052;-76
2023/05/04 04:29:51;;;;;;;8.85;6.28;;;;;;;7.72;65.65;98849.47;5034091;28;20064;-76
2023/05/04 04:32:16;;;;;;;9.07;6.80;;;;;;;7.46;66.11;98850.31;5001105;28;20124;-75
2023/05/04 04:34:42;;;;;;;8.45;5.53;;;;;;;7.84;63.89;98848.56;5033748;28;20041;-76
2023/05/04 04:37:07;;;;;;;9.48;7.05;;;;;;;7.98;65.52;98844.03;5035175;28;20021;-74
2023/05/04 04:39:32;;;;;;;8.75;7.45;;;;;;;7.69;66.41;98850.69;5014151;28;20484;-75
2023/05/04 04:41:58;;;;;;;6.78;6.18;;;;;;;7.72;66.59;98857.50;5031551;28;20033;-74
2023/05/04 04:44:23;;;;;;;8.07;6.22;;;;;;;7.44;67.36;98845.19;5034654;28;20041;-74
2023/05/04 04:46:49;;;;;;;8.45;5.63;;;;;;;7.81;64.47;98849.03;5033552;28;20033;-74
2023/05/04 04:49:16;;;;;;;9.05;6.63;;;;;;;7.79;67.01;98856.47;5033761;28;20033;-75
2023/05/04 04:51:42;;;;;;;9.05;5.63;;;;;;;7.89;66.44;98848.78;5033625;28;20096;-75
2023/05/04 04:54:07;;;;;;;8.68;5.40;;;;;;;8.01;63.92;98852.44;5030372;28;20104;-75
2023/05/04 04:56:33;;;;;;;8.45;5.82;;;;;;;8.25;65.82;98854.44;5030070;28;20704;-74
2023/05/04 04:58:58;;;;;;;7.65;5.65;;;;;;;8.19;62.84;98838.38;5034666;28;20112;-74
2023/05/04 05:01:25;;;;;;;7.00;5.75;;;;;;;8.35;65.21;98852.13;5033353;28;20052;-75
2023/05/04 05:03:50;;;;;;;7.68;5.22;;;;;;;8.47;62.05;98846.09;5033108;28;20117;-74
2023/05/04 05:06:15;;;;;;;7.13;5.70;;;;;;;8.29;64.03;98849.47;5033354;28;20032;-74
2023/05/04 05:08:42;;;;;;;7.05;5.43;;;;;;;8.80;61.87;98844.00;5033270;28;20033;-75
2023/05/04 05:11:08;;;;;;;8.52;5.90;;;;;;;8.70;64.38;98854.44;5033080;28;20565;-74
2023/05/04 05:13:33;;;;;;;9.27;5.88;;;;;;;8.77;65.14;98849.84;5032943;28;20073;-75
2023/05/04 05:15:59;;;;;;;8.45;5.93;;;;;;;8.79;63.48;98840.53;5049849;28;20049;-74
2023/05/04 05:18:25;;;;;;;8.07;6.22;;;;;;;8.80;63.10;98844.00;5034283;28;20476;-75
2023/05/04 05:20:51;;;;;;;8.43;5.30;;;;;;;8.83;62.18;98839.03;5032863;28;20033;-75
2023/05/04 05:23:16;;;;;;;18.08;6.13;;;;;;;8.95;64.35;98831.09;5033111;28;20037;-75
2023/05/04 05:25:42;;;;;;;9.65;5.65;;;;;;;9.17;62.09;98839.63;5034424;28;20699;-75
2023/05/04 05:28:08;;;;;;;8.15;6.15;;;;;;;9.35;61.55;98840.50;5032369;28;20034;-71
2023/05/04 05:30:34;;;;;;;7.22;5.57;;;;;;;9.61;61.98;98844.78;5033473;28;20028;-71
2023/05/04 05:32:59;;;;;;;7.47;5.78;;;;;;;9.81;59.77;98847.25;5032537;28;20029;-74
2023/05/04 05:35:24;;;;;;;8.23;5.82;;;;;;;9.57;61.71;98836.34;5034099;28;20036;-74
2023/05/04 05:37:50;;;;;;;10.38;6.32;;;;;;;9.77;62.13;98840.69;5012739;28;20042;-74
2023/05/04 05:40:16;;;;;;;8.20;5.30;;;;;;;9.94;60.52;98841.75;5024372;28;20026;-74
2023/05/04 05:42:41;;;;;;;7.65;5.72;;;;;;;10.10;60.89;98851.91;5030646;28;20509;-74
2023/05/04 05:45:09;;;;;;;9.20;5.50;;;;;;;9.81;60.12;98853.47;5032071;28;20147;-75
2023/05/04 05:47:35;;;;;;;10.45;5.60;;;;;;;10.20;59.27;98854.91;5030868;28;20121;-73
2023/05/04 05:50:01;;;;;;;8.75;5.47;;;;;;;10.06;59.66;98856.09;5047266;28;20021;-75
2023/05/04 05:52:26;;;;;;;8.30;5.45;;;;;;;10.11;60.32;98853.53;5031438;28;20037;-75
2023/05/04 05:57:19;;;;;;;5.90;5.05;;;;;;;10.62;56.58;98848.56;4992499;28;20056;-75
2023/05/04 05:59:45;;;;;;;8.10;5.68;;;;;;;10.63;57.78;98849.38;4997990;28;20104;-75
2023/05/04 06:02:13;;;;;;;7.13;5.90;;;;;;;10.97;56.97;98846.78;4969147;28;20497;-75
2023/05/04 06:04:39;;;;;;;8.30;5.72;;;;;;;11.01;57.41;98842.59;4956115;28;20033;-75
2023/05/04 06:07:04;;;;;;;8.13;5.88;;;;;;;10.92;57.58;98852.03;4973441;28;20035;-75
2023/05/04 06:09:31;;;;;;;7.15;5.05;;;;;;;11.05;56.06;98849.16;4961902;28;20034;-75
2023/05/04 06:11:56;;;;;;;7.32;5.15;;;;;;;11.30;54.58;98848.13;4965352;28;20039;-75
2023/05/04 06:14:22;;;;;;;7.88;5.00;;;;;;;11.55;54.17;98846.06;4966918;28;20106;-75
2023/05/04 06:16:47;;;;;;;6.03;4.85;;;;;;;11.38;56.17;98840.53;4963278;28;20046;-77
2023/05/04 06:19:13;;;;;;;7.05;5.05;;;;;;;11.67;54.55;98839.63;4995351;28;20078;-75
2023/05/04 06:21:38;;;;;;;6.70;4.80;;;;;;;11.86;53.18;98837.59;4966722;28;20071;-75
2023/05/04 06:24:04;;;;;;;6.15;4.80;;;;;;;11.91;53.61;98836.91;4982920;28;20147;-75
2023/05/04 06:26:29;;;;;;;7.43;5.03;;;;;;;11.95;52.10;98841.56;4983957;28;20102;-75
2023/05/04 06:28:55;;;;;;;6.90;4.68;;;;;;;12.20;51.76;98847.53;4978933;28;20093;-75
2023/05/04 06:31:20;;;;;;;8.57;6.40;;;;;;;12.24;54.03;98840.59;4978413;28;20481;-75
2023/05/04 06:33:46;;;;;;;7.63;5.25;;;;;;;12.01;56.00;98835.25;4959704;28;20066;-75
2023/05/04 06:36:11;;;;;;;8.45;5.63;;;;;;;11.98;52.49;98840.28;4960743;28;20038;-75
2023/05/04 06:38:37;;;;;;;6.50;4.90;;;;;;;12.01;52.67;98845.22;4960170;28;20023;-75
2023/05/04 06:41:02;;;;;;;6.82;5.25;;;;;;;12.21;53.00;98838.38;4965986;28;20486;-75
2023/05/04 06:43:28;;;;;;;8.50;5.68;;;;;;;12.30;51.18;98836.91;4967782;28;20065;-75
2023/05/04 06:45:53;;;;;;;8.20;5.15;;;;;;;12.48;50.73;98839.44;4966056;28;20479;-76
2023/05/04 06:48:18;;;;;;;9.68;5.32;;;;;;;12.54;50.57;98839.53;4966441;28;20089;-75
2023/05/04 06:50:44;;;;;;;8.38;5.60;;;;;;;12.57;53.20;98839.06;4965886;28;20497;-75
2023/05/04 06:53:10;;;;;;;7.90;5.50;;;;;;;12.72;51.71;98831.25;4966153;28;20026;-75
2023/05/04 06:55:36;;;;;;;8.77;5.35;;;;;;;12.98;50.31;98836.03;4975881;28;20043;-75
2023/05/04 06:58:02;;;;;;;7.13;4.97;;;;;;;13.24;50.45;98840.84;4959317;28;20122;-75
2023/05/04 07:00:27;;;;;;;9.27;5.25;;;;;;;13.36;50.75;98838.88;4987930;28;20117;-75
2023/05/04 07:02:53;;;;;;;6.88;5.40;;;;;;;13.51;51.05;98841.81;4977393;28;20114;-75
2023/05/04 07:05:22;;;;;;;6.80;4.97;;;;;;;13.45;49.99;98832.00;4960081;28;20400;-75
2023/05/04 07:07:48;;;;;;;8.55;5.43;;;;;;;13.28;48.80;98839.28;4969862;28;20027;-76
2023/05/04 07:10:14;;;;;;;8.48;5.30;;;;;;;13.54;49.11;98841.31;4972509;28;20420;-75
2023/05/04 07:12:40;;;;;;;10.18;5.18;;;;;;;13.60;49.52;98829.53;4959320;28;20034;-76
2023/05/04 07:15:07;;;;;;;7.88;5.30;;;;;;;13.77;48.98;98838.41;4964925;28;20399;-75
2023/05/04 07:17:33;;;;;;;8.63;5.10;;;;;;;13.66;48.81;98841.22;4955120;28;20033;-75
2023/05/04 07:20:00;;;;;;;7.40;5.20;;;;;;;13.78;48.52;98831.94;4964946;28;20035;-76
2023/05/04 07:22:25;;;;;;;20.15;7.00;;;;;;;13.93;49.16;98838.66;4983035;28;20018;-75
2023/05/04 07:24:51;;;;;;;10.90;5.90;;;;;;;14.04;49.04;98829.59;5030210;23;20051;-75
2023/05/04 07:27:16;;;;;;;6.90;5.22;;;;;;;14.23;47.58;98822.78;5018055;28;20476;-75
2023/05/04 07:29:42;;;;;;;7.63;5.35;;;;;;;14.24;47.41;98827.13;5018549;28;20124;-75
2023/05/04 07:32:07;;;;;;;6.85;5.10;;;;;;;14.25;50.19;98820.66;5016453;28;20029;-75
2023/05/04 07:34:34;;;;;;;9.02;5.25;;;;;;;14.35;47.69;98815.38;4994971;28;20096;-76
2023/05/04 07:37:02;;;;;;;8.13;5.20;;;;;;;14.51;49.13;98814.47;5012240;28;20075;-76
2023/05/04 07:39:27;;;;;;;7.00;5.18;;;;;;;14.55;49.22;98810.19;5022735;28;20042;-75
2023/05/04 07:41:53;;;;;;;9.18;5.18;;;;;;;14.54;49.61;98811.25;5026815;28;20029;-76
2023/05/04 07:44:19;;;;;;;6.97;5.50;;;;;;;14.73;47.94;98809.81;5022503;28;20038;-75
2023/05/04 07:46:44;;;;;;;10.63;5.90;;;;;;;14.94;48.12;98811.66;5007641;28;20039;-76
2023/05/04 07:49:10;;;;;;;8.15;5.40;;;;;;;14.98;48.16;98804.63;5019230;28;20109;-76
2023/05/04 07:51:35;;;;;;;6.97;5.32;;;;;;;15.13;47.79;98806.66;5017045;28;20701;-75
2023/05/04 07:54:00;;;;;;;9.88;5.80;;;;;;;15.01;48.66;98804.13;5022364;28;20048;-75
2023/05/04 07:56:26;;;;;;;9.48;4.90;;;;;;;15.17;47.18;98800.47;5025623;28;20030;-76
2023/05/04 07:58:51;;;;;;;6.05;5.05;;;;;;;15.23;48.64;98813.00;5005941;28;20041;-76
2023/05/04 08:01:17;;;;;;;8.50;5.65;;;;;;;15.63;47.71;98807.09;5011421;28;20048;-76
2023/05/04 08:03:44;;;;;;;10.15;5.63;;;;;;;15.46;47.79;98805.59;5024232;28;20480;-76
2023/05/04 08:06:09;;;;;;;6.75;5.40;;;;;;;15.63;48.27;98806.28;5011497;28;20029;-76
2023/05/04 08:08:34;;;;;;;7.60;5.63;;;;;;;15.50;46.31;98806.72;5017874;28;20049;-75
2023/05/04 08:11:00;;;;;;;7.88;4.95;;;;;;;15.55;48.25;98813.00;5018007;28;20030;-76
2023/05/04 08:13:25;;;;;;;7.70;5.22;;;;;;;15.52;46.73;98816.22;5017398;28;20033;-75
2023/05/04 08:15:51;;;;;;;7.75;4.88;;;;;;;15.68;46.39;98814.47;5031389;28;20428;-76
2023/05/04 08:18:16;;;;;;;7.90;4.65;;;;;;;15.68;46.37;98814.47;5006997;28;20042;-76
2023/05/04 08:20:42;;;;;;;7.05;4.95;;;;;;;15.83;45.44;98811.81;5040471;28;20025;-76
2023/05/04 08:23:07;;;;;;;10.98;5.57;;;;;;;15.80;47.28;98818.59;5023142;28;20500;-76
2023/05/04 08:25:33;;;;;;;6.50;5.28;;;;;;;16.12;47.65;98815.78;5007465;28;20112;-76
2023/05/04 08:27:59;;;;;;;9.93;5.43;;;;;;;16.13;46.07;98811.16;5017357;28;20034;-75
2023/05/04 08:30:25;;;;;;;10.20;5.65;;;;;;;16.18;45.38;98803.84;5023477;28;20076;-77
2023/05/04 08:32:54;;;;;;;7.60;5.50;;;;;;;16.33;46.64;98805.81;5012956;28;20042;-76
2023/05/04 08:35:19;;;;;;;8.38;5.00;;;;;;;16.53;45.52;98805.91;5024914;28;20087;-75
2023/05/04 08:37:44;;;;;;;7.57;5.85;;;;;;;16.47;46.66;98806.94;5018345;28;20038;-76
2023/05/04 08:40:11;;;;;;;8.32;6.28;;;;;;;16.53;45.62;98795.84;5016247;28;20022;-75
2023/05/04 08:42:36;;;;;;;6.70;6.00;;;;;;;16.83;45.72;98794.25;4994004;28;20065;-75
2023/05/04 08:45:02;;;;;;;9.05;6.57;;;;;;;16.83;44.49;98799.69;5024983;28;20065;-75
2023/05/04 08:47:27;;;;;;;9.32;7.20;;;;;;;16.91;43.95;98788.28;5022942;28;20038;-75
2023/05/04 08:49:53;;;;;;;6.78;5.93;;;;;;;16.92;44.24;98803.53;5023446;28;20028;-75
2023/05/04 08:52:23;;;;;;;8.45;5.97;;;;;;;16.73;44.32;98799.69;5017598;28;20029;-76
2023/05/04 08:54:52;;;;;;;9.30;6.30;;;;;;;16.95;44.75;98786.66;5032976;28;20049;-75
2023/05/04 08:57:17;;;;;;;9.57;7.13;;;;;;;17.24;46.28;98795.94;5029966;28;20040;-74
2023/05/04 08:59:44;;;;;;;9.13;7.38;;;;;;;17.35;47.51;98796.75;5026495;28;20070;-74
2023/05/04 09:02:10;;;;;;;11.05;7.80;;;;;;;17.17;47.27;98789.94;5010314;28;20041;-75
2023/05/04 09:04:36;;;;;;;9.80;7.15;;;;;;;17.23;46.01;98789.66;5025974;28;20129;-75
2023/05/04 09:07:02;;;;;;;10.10;6.68;;;;;;;17.54;46.92;98790.50;5004967;28;20176;-76
2023/05/04 09:09:27;;;;;;;6.82;5.72;;;;;;;17.39;45.84;98787.75;5003851;28;20033;-75
2023/05/04 09:11:53;;;;;;;8.82;6.22;;;;;;;17.48;44.32;98783.38;5025723;28;20053;-76
2023/05/04 09:14:21;;;;;;;7.70;6.00;;;;;;;17.28;43.07;98780.69;5011270;28;20395;-76
2023/05/04 09:16:46;;;;;;;6.35;5.75;;;;;;;16.96;44.05;98778.25;5026690;28;20123;-76
2023/05/04 09:19:19;;;;;;;8.57;6.38;;;;;;;17.23;45.39;98775.22;5043325;28;20104;-76
2023/05/04 09:21:45;;;;;;;8.20;5.63;;;;;;;17.64;45.61;98768.66;5022023;28;20037;-75
2023/05/04 09:24:11;;;;;;;8.23;5.65;;;;;;;17.67;43.16;98765.41;5036187;28;20095;-75
2023/05/04 09:26:38;;;;;;;6.63;5.40;;;;;;;17.72;43.77;98759.94;5024108;28;20037;-76
2023/05/04 09:29:14;;;;;;;7.28;5.68;;;;;;;17.80;44.82;98756.66;5001099;28;20026;-76
2023/05/04 09:31:44;;;;;;;7.75;5.60;;;;;;;17.98;44.20;98746.22;5022338;28;20068;-75
2023/05/04 09:34:09;;;;;;;6.60;4.70;;;;;;;17.94;42.22;98744.06;5002108;28;20037;-75
2023/05/04 09:36:35;;;;;;;6.40;4.50;;;;;;;17.85;44.72;98743.00;5023744;28;20081;-75
2023/05/04 09:39:14;;;;;;;5.97;4.65;;;;;;;17.89;43.19;98741.38;5026847;28;20078;-76
2023/05/04 09:41:40;;;;;;;7.60;5.45;;;;;;;17.94;42.55;98740.53;5025903;28;20114;-76
2023/05/04 09:44:17;;;;;;;7.97;5.15;;;;;;;18.39;41.46;98742.22;5002825;28;20034;-76
2023/05/04 09:46:51;;;;;;;7.13;5.18;;;;;;;17.80;42.51;98740.31;5020648;28;20096;-75
2023/05/04 09:49:18;;;;;;;9.18;4.90;;;;;;;18.30;40.29;98743.88;5024047;28;20092;-75
2023/05/04 09:51:44;;;;;;;10.00;5.30;;;;;;;17.91;40.42;98747.34;5009339;28;20116;-76
2023/05/04 09:54:10;;;;;;;5.32;4.50;;;;;;;18.27;41.50;98733.56;5005037;28;20033;-76
2023/05/04 09:56:40;;;;;;;9.27;4.50;;;;;;;18.68;40.89;98740.44;5017043;28;20125;-76
2023/05/04 09:59:07;;;;;;;6.80;4.88;;;;;;;18.27;40.32;98739.84;5005374;28;20083;-76
2023/05/04 10:01:33;;;;;;;6.85;5.20;;;;;;;18.36;39.21;98732.69;5017226;28;20495;-76
2023/05/04 10:03:58;;;;;;;8.50;5.20;;;;;;;18.66;39.73;98714.53;5022332;28;20065;-75
2023/05/04 10:06:24;;;;;;;6.53;5.22;;;;;;;18.62;40.85;98719.75;5008784;28;20025;-76
2023/05/04 10:08:50;;;;;;;7.35;4.65;;;;;;;18.91;40.13;98720.59;5023320;28;20087;-75
2023/05/04 10:11:18;;;;;;;6.55;4.53;;;;;;;19.16;39.14;98712.19;5035623;28;20029;-75
2023/05/04 10:13:55;;;;;;;9.27;4.85;;;;;;;19.00;39.38;98724.34;5023464;28;20439;-76
2023/05/04 10:16:32;;;;;;;8.48;4.78;;;;;;;19.11;39.24;98709.50;5025267;28;20121;-75
2023/05/04 10:19:03;;;;;;;4.88;4.38;;;;;;;19.27;37.58;98708.28;5025653;28;20033;-76
2023/05/04 10:21:47;;;;;;;9.05;4.82;;;;;;;18.82;39.64;98711.41;5021089;28;20033;-76
2023/05/04 10:24:57;;;;;;;7.07;4.60;;;;;;;18.84;39.93;98698.28;5018559;28;20037;-76
2023/05/04 10:27:47;;;;;;;8.18;5.00;;;;;;;19.21;40.15;98695.75;5002694;28;20143;-76
2023/05/04 10:30:14;;;;;;;8.27;3.88;;;;;;;19.31;40.13;98697.56;5032051;28;20103;-76
2023/05/04 10:32:41;;;;;;;6.90;4.43;;;;;;;19.47;35.97;98690.06;5019666;28;20045;-76
2023/05/04 10:35:07;;;;;;;6.45;4.00;;;;;;;19.68;38.34;98699.66;5002567;28;20036;-76
2023/05/04 10:37:34;;;;;;;5.45;3.67;;;;;;;19.94;35.31;98684.59;5025360;28;20055;-75
2023/05/04 10:40:00;;;;;;;6.75;3.88;;;;;;;20.02;35.77;98678.47;4996218;28;20087;-76
2023/05/04 10:42:25;;;;;;;6.00;4.03;;;;;;;19.98;36.25;98677.41;5025411;28;20033;-76
2023/05/04 10:44:53;;;;;;;7.78;4.07;;;;;;;19.83;34.72;98674.91;5012056;28;20037;-76
2023/05/04 10:47:32;;;;;;;8.48;4.35;;;;;;;18.95;35.94;98674.47;5025366;28;20022;-77
2023/05/04 10:50:03;;;;;;;4.32;3.70;;;;;;;19.33;35.72;98677.06;5008554;28;20034;-77
2023/05/04 10:52:28;;;;;;;5.70;3.78;;;;;;;19.81;34.77;98666.19;5012102;28;20129;-76
2023/05/04 10:54:58;;;;;;;4.90;3.63;;;;;;;19.87;34.36;98654.06;5012120;28;20112;-76
2023/05/04 10:57:28;;;;;;;3.97;3.55;;;;;;;19.88;34.78;98650.22;5014416;28;20114;-76
2023/05/04 10:59:58;;;;;;;5.50;3.90;;;;;;;19.93;33.85;98647.41;5028464;28;20046;-76
2023/05/04 11:02:24;;;;;;;5.07;3.72;;;;;;;19.55;35.43;98649.28;5011863;28;20041;-77
2023/05/04 11:05:19;;;;;;;5.82;3.63;;;;;;;20.32;33.02;98639.78;5015105;28;20021;-76
2023/05/04 11:07:45;;;;;;;5.28;3.63;;;;;;;20.13;32.60;98638.94;4993195;28;20416;-77
2023/05/04 11:10:22;;;;;;;4.38;3.63;;;;;;;19.89;33.29;98638.16;5024020;28;20029;-76
2023/05/04 11:12:47;;;;;;;5.22;3.58;;;;;;;20.70;32.85;98628.78;5026484;28;20113;-77
2023/05/04 11:15:13;;;;;;;4.35;3.30;;;;;;;20.36;34.35;98616.19;5006254;28;20586;-76
2023/05/04 11:17:48;;;;;;;6.00;3.60;;;;;;;20.85;34.11;98625.78;5024278;28;20029;-76
2023/05/04 11:20:24;;;;;;;5.47;3.67;;;;;;;21.16;31.83;98626.91;5020124;28;20037;-76
2023/05/04 11:22:50;;;;;;;;;;;;;;;20.92;31.99;98626.19;5016050;28;20501;-77
2023/05/04 11:25:16;;;;;;;5.57;3.30;;;;;;;21.20;34.00;98622.44;5036323;28;19913;-76
2023/05/04 11:27:42;;;;;;;4.45;3.20;;;;;;;21.24;33.17;98628.91;5039887;28;20037;-77
2023/05/04 11:30:08;;;;;;;3.95;2.92;;;;;;;20.65;34.26;98621.47;5005765;28;20021;-77
2023/05/04 11:32:37;;;;;;;6.03;3.38;;;;;;;20.41;33.72;98624.31;5017359;28;20030;-76
2023/05/04 11:35:04;;;;;;;3.92;3.30;;;;;;;20.72;33.03;98621.09;5019401;28;20477;-76
2023/05/04 11:37:30;;;;;;;4.60;3.10;;;;;;;21.33;33.97;98627.91;5024641;28;20038;-76